createdAt,value
2023-03-02T00:03:53.125Z,1.18
2023-03-02T00:08:52.898Z,1.02
2023-03-02T00:14:05.536Z,0.84
2023-03-02T00:18:58.387Z,0.79
2023-03-02T00:24:17.038Z,0.66
2023-03-02T00:28:56.108Z,0.55
2023-03-02T00:33:53.276Z,0.69
2023-03-02T00:38:53.796Z,0.75
2023-03-02T00:43:53.740Z,0.62
2023-03-02T00:48:54.489Z,0.55
2023-03-02T00:54:18.151Z,0.44
2023-03-02T02:11:28.079Z,-0.10
2023-03-02T02:17:43.315Z,-0.04
2023-03-02T02:29:07.688Z,0.23
2023-03-02T02:34:07.410Z,0.17
2023-03-02T02:39:08.076Z,0.11
2023-03-02T02:44:07.385Z,0.21
2023-03-02T02:49:07.858Z,0.23
2023-03-02T02:55:31.513Z,0.31
2023-03-02T03:00:31.190Z,0.21
2023-03-02T03:05:32.283Z,0.31
2023-03-02T03:10:34.281Z,0.31
2023-03-02T03:15:30.708Z,0.32
2023-03-02T03:20:30.707Z,0.26
2023-03-02T03:25:30.643Z,0.08
2023-03-02T03:30:30.605Z,-0.07
2023-03-02T03:35:30.500Z,-0.08
2023-03-02T03:40:30.503Z,-0.07
2023-03-02T03:45:30.567Z,0.10
2023-03-02T03:50:30.296Z,0.15
2023-03-02T03:55:30.225Z,0.03
2023-03-02T04:00:30.193Z,-0.05
2023-03-02T04:05:31.700Z,-0.08
2023-03-02T04:10:30.059Z,-0.18
2023-03-02T04:15:30.123Z,-0.23
2023-03-02T04:20:29.983Z,-0.31
2023-03-02T04:25:31.026Z,-0.29
2023-03-02T04:30:29.861Z,-0.34
2023-03-02T04:35:29.800Z,-0.31
2023-03-02T04:40:29.779Z,-0.28
2023-03-02T04:45:29.683Z,-0.18
2023-03-02T04:50:29.840Z,-0.11
2023-03-02T04:55:29.597Z,-0.01
2023-03-02T05:00:29.668Z,-0.11
2023-03-02T05:05:29.567Z,-0.16
2023-03-02T05:10:30.606Z,-0.16
2023-03-02T05:15:29.495Z,-0.18
2023-03-02T05:20:29.369Z,-0.26
2023-03-02T05:25:29.301Z,-0.39
2023-03-02T05:30:29.256Z,-0.44
2023-03-02T05:35:30.336Z,-0.60
2023-03-02T05:40:29.254Z,-0.62
2023-03-02T05:45:29.101Z,-0.57
2023-03-02T05:50:29.021Z,-0.49
2023-03-02T05:55:28.989Z,-0.40
2023-03-02T06:00:28.957Z,-0.42
2023-03-02T06:05:28.882Z,-0.36
2023-03-02T06:10:30.970Z,-0.40
2023-03-02T06:15:29.817Z,-0.47
2023-03-02T06:20:28.667Z,-0.44
2023-03-02T06:25:28.652Z,-0.46
2023-03-02T06:30:28.681Z,-0.39
2023-03-02T06:35:28.653Z,-0.42
2023-03-02T06:40:28.500Z,-0.46
2023-03-02T06:45:28.430Z,-0.43
2023-03-02T06:50:28.443Z,-0.36
2023-03-02T06:55:28.368Z,-0.23
2023-03-02T07:00:28.467Z,-0.19
2023-03-02T07:05:29.298Z,-0.08
2023-03-02T07:10:28.197Z,-0.07
2023-03-02T07:15:28.138Z,0.15
2023-03-02T07:20:28.064Z,0.21
2023-03-02T07:25:27.987Z,0.35
2023-03-02T07:30:27.979Z,0.79
2023-03-02T07:35:28.069Z,1.05
2023-03-02T07:40:27.903Z,1.24
2023-03-02T07:45:27.799Z,1.37
2023-03-02T07:50:28.845Z,1.59
2023-03-02T07:55:27.658Z,1.55
2023-03-02T08:00:27.611Z,1.86
2023-03-02T08:05:27.629Z,2.02
2023-03-02T08:10:27.556Z,2.18
2023-03-02T08:15:27.483Z,2.53
2023-03-02T08:20:27.410Z,2.89
2023-03-02T08:25:27.393Z,3.32
2023-03-02T08:30:27.345Z,3.45
2023-03-02T08:35:27.310Z,3.78
2023-03-02T08:40:28.224Z,4.11
2023-03-02T08:45:27.171Z,4.34
2023-03-02T08:50:27.275Z,4.62
2023-03-02T08:55:27.114Z,4.85
2023-03-02T09:00:26.996Z,4.89
2023-03-02T09:05:27.055Z,5.27
2023-03-02T09:10:27.026Z,5.43
2023-03-02T09:15:26.832Z,5.36
2023-03-02T09:20:26.858Z,5.75
2023-03-02T09:25:26.722Z,5.82
2023-03-02T09:30:26.658Z,5.83
2023-03-02T09:35:26.608Z,6.19
2023-03-02T09:40:26.593Z,6.15
2023-03-02T09:45:26.470Z,6.17
2023-03-02T09:50:26.524Z,6.44
2023-03-02T09:55:26.387Z,6.37
2023-03-02T10:00:26.369Z,6.67
2023-03-02T10:05:26.291Z,6.92
2023-03-02T10:10:26.233Z,7.12
2023-03-02T10:15:26.130Z,7.07
2023-03-02T10:20:26.116Z,7.21
2023-03-02T10:25:26.067Z,7.55
2023-03-02T10:30:25.959Z,7.34
2023-03-02T10:35:25.988Z,7.48
2023-03-02T10:40:25.850Z,7.12
2023-03-02T10:45:25.831Z,8.00
2023-03-02T10:50:25.771Z,8.02
2023-03-02T10:55:25.751Z,8.00
2023-03-02T11:00:25.760Z,8.34
2023-03-02T11:05:25.632Z,8.28
2023-03-02T11:10:25.615Z,8.58
2023-03-02T11:15:25.601Z,8.43
2023-03-02T11:20:25.441Z,8.33
2023-03-02T11:25:25.371Z,8.71
2023-03-02T11:30:25.338Z,8.70
2023-03-02T11:35:25.381Z,8.63
2023-03-02T11:40:25.277Z,8.76
2023-03-02T11:45:25.158Z,8.91
2023-03-02T11:50:25.096Z,9.10
2023-03-02T11:55:25.037Z,8.79
2023-03-02T12:00:24.997Z,9.24
2023-03-02T12:05:25.031Z,9.08
2023-03-02T12:10:24.900Z,9.32
2023-03-02T12:15:24.828Z,9.32
2023-03-02T12:20:24.889Z,9.33
2023-03-02T12:25:28.207Z,9.38
2023-03-02T12:30:24.820Z,9.53
2023-03-02T12:35:24.652Z,9.43
2023-03-02T12:40:24.541Z,9.75
2023-03-02T12:45:24.520Z,9.72
2023-03-02T12:50:24.467Z,9.61
2023-03-02T12:55:25.478Z,9.86
2023-03-02T13:00:24.409Z,9.76
2023-03-02T13:05:24.349Z,9.97
2023-03-02T13:10:24.298Z,9.75
2023-03-02T13:15:24.169Z,9.78
2023-03-02T13:20:24.218Z,10.05
2023-03-02T13:25:24.036Z,10.02
2023-03-02T13:30:24.077Z,10.11
2023-03-02T13:35:26.313Z,9.99
2023-03-02T13:40:23.912Z,10.08
2023-03-02T13:45:24.874Z,9.97
2023-03-02T13:50:23.874Z,9.86
2023-03-02T13:55:23.793Z,9.94
2023-03-02T14:00:23.668Z,9.91
2023-03-02T14:05:23.777Z,9.94
2023-03-02T14:10:23.631Z,9.89
2023-03-02T14:15:23.536Z,9.89
2023-03-02T14:20:23.531Z,9.87
2023-03-02T14:25:23.465Z,10.02
2023-03-02T14:30:23.286Z,10.02
2023-03-02T14:35:23.277Z,9.87
2023-03-02T14:40:23.193Z,9.83
2023-03-02T14:45:23.231Z,9.86
2023-03-02T14:50:23.055Z,9.97
2023-03-02T14:55:23.010Z,9.78
2023-03-02T15:00:23.046Z,9.91
2023-03-02T15:05:23.002Z,9.93
2023-03-02T15:10:22.917Z,10.05
2023-03-02T15:15:22.804Z,9.69
2023-03-02T15:20:22.779Z,9.69
2023-03-02T15:25:22.774Z,9.66
2023-03-02T15:30:23.704Z,9.75
2023-03-02T15:35:22.588Z,9.87
2023-03-02T15:40:22.553Z,9.72
2023-03-02T15:45:22.534Z,9.72
2023-03-02T15:50:22.497Z,9.69
2023-03-02T15:55:22.372Z,9.65
2023-03-02T16:00:22.303Z,9.64
2023-03-02T16:05:22.421Z,9.61
2023-03-02T16:10:22.271Z,9.68
2023-03-02T16:15:22.341Z,9.69
2023-03-02T16:20:22.182Z,9.66
2023-03-02T16:25:22.063Z,9.68
2023-03-02T16:30:23.407Z,9.54
2023-03-02T16:35:21.976Z,9.33
2023-03-02T16:40:21.935Z,9.13
2023-03-02T16:45:21.899Z,9.14
2023-03-02T16:50:22.106Z,9.24
2023-03-02T16:55:27.330Z,8.80
2023-03-02T17:00:30.654Z,8.53
2023-03-02T17:05:22.609Z,8.44
2023-03-02T17:10:21.559Z,8.43
2023-03-02T17:15:21.475Z,8.37
2023-03-02T17:20:23.511Z,8.23
2023-03-02T17:25:22.451Z,8.07
2023-03-02T17:30:25.737Z,7.86
2023-03-02T17:35:21.253Z,7.69
2023-03-02T17:40:31.064Z,7.58
2023-03-02T17:45:21.177Z,7.45
2023-03-02T17:50:21.139Z,7.43
2023-03-02T17:55:21.052Z,7.34
2023-03-02T18:00:25.359Z,7.16
2023-03-02T18:05:21.993Z,7.10
2023-03-02T18:10:22.000Z,6.76
2023-03-02T18:15:20.929Z,6.67
2023-03-02T18:20:20.859Z,6.91
2023-03-02T18:25:20.738Z,6.70
2023-03-02T18:30:20.717Z,6.52
2023-03-02T18:35:20.607Z,6.52
2023-03-02T18:40:20.764Z,6.46
2023-03-02T18:45:20.567Z,6.22
2023-03-02T18:50:20.574Z,6.08
2023-03-02T18:55:20.436Z,5.85
2023-03-02T19:00:21.460Z,5.79
2023-03-02T19:05:20.276Z,5.78
2023-03-02T19:10:21.539Z,5.57
2023-03-02T19:15:20.210Z,5.51
2023-03-02T19:20:20.147Z,5.43
2023-03-02T19:25:21.140Z,5.33
2023-03-02T19:30:20.157Z,5.24
2023-03-02T19:35:20.068Z,5.07
2023-03-02T19:40:21.020Z,4.84
2023-03-02T19:45:19.875Z,4.88
2023-03-02T19:50:19.836Z,4.77
2023-03-02T19:55:19.737Z,4.69
2023-03-02T20:00:19.692Z,4.66
2023-03-02T20:05:19.619Z,4.65
2023-03-02T20:10:19.601Z,4.33
2023-03-02T20:15:19.526Z,4.34
2023-03-02T20:20:19.448Z,4.12
2023-03-02T20:25:19.435Z,3.98
2023-03-02T20:30:19.451Z,3.90
2023-03-02T20:35:21.386Z,3.79
2023-03-02T20:40:19.583Z,3.83
2023-03-02T20:45:20.261Z,3.69
2023-03-02T20:50:19.231Z,3.57
2023-03-02T20:55:21.136Z,3.47
2023-03-02T21:00:19.112Z,3.50
2023-03-02T21:05:19.005Z,3.42
2023-03-02T21:10:18.917Z,3.20
2023-03-02T21:15:18.877Z,3.02
2023-03-02T21:20:18.831Z,3.05
2023-03-02T21:25:18.762Z,2.90
2023-03-02T21:30:18.707Z,2.90
2023-03-02T21:35:18.642Z,2.78
2023-03-02T21:40:18.624Z,2.67
2023-03-02T21:45:18.606Z,2.79
2023-03-02T21:50:18.637Z,2.90
2023-03-02T21:55:18.442Z,2.95
2023-03-02T22:00:18.404Z,2.89
2023-03-02T22:05:18.352Z,2.93
2023-03-02T22:10:18.267Z,3.02
2023-03-02T22:15:18.258Z,3.10
2023-03-02T22:20:18.201Z,3.00
2023-03-02T22:25:18.195Z,2.78
2023-03-02T22:30:18.256Z,2.93
2023-03-02T22:35:18.113Z,2.81
2023-03-02T22:40:17.951Z,2.69
2023-03-02T22:45:17.892Z,2.56
2023-03-02T22:50:17.893Z,2.49
2023-03-02T22:55:17.848Z,2.90
2023-03-02T23:00:17.719Z,2.71
2023-03-02T23:05:17.682Z,2.66
2023-03-02T23:10:17.686Z,2.61
2023-03-02T23:15:17.577Z,2.52
2023-03-02T23:20:17.508Z,2.49
2023-03-02T23:25:17.457Z,2.41
2023-03-02T23:30:17.535Z,2.31
2023-03-02T23:35:17.501Z,2.38
2023-03-02T23:40:17.289Z,2.38
2023-03-02T23:45:17.261Z,2.07
2023-03-02T23:50:17.210Z,2.27
2023-03-02T23:55:17.159Z,2.48
